sensor_id;sensor_type;location;lat;lon;timestamp;P1;durP1;ratioP1;P2;durP2;ratioP2
68386;SDS011;55338;43.062;25.624;2023-01-15T00:01:00;11.38;;;5.65;;
68386;SDS011;55338;43.062;25.624;2023-01-15T00:03:26;13.60;;;5.93;;
68386;SDS011;55338;43.062;25.624;2023-01-15T00:05:53;12.65;;;5.53;;
68386;SDS011;55338;43.062;25.624;2023-01-15T00:08:19;10.55;;;5.20;;
68386;SDS011;55338;43.062;25.624;2023-01-15T00:10:45;12.53;;;5.57;;
68386;SDS011;55338;43.062;25.624;2023-01-15T00:13:11;12.20;;;5.50;;
68386;SDS011;55338;43.062;25.624;2023-01-15T00:15:36;11.77;;;5.93;;
68386;SDS011;55338;43.062;25.624;2023-01-15T00:18:02;12.75;;;6.15;;
68386;SDS011;55338;43.062;25.624;2023-01-15T00:20:28;11.73;;;5.53;;
68386;SDS011;55338;43.062;25.624;2023-01-15T00:22:54;16.85;;;6.28;;
68386;SDS011;55338;43.062;25.624;2023-01-15T00:25:20;12.23;;;5.77;;
68386;SDS011;55338;43.062;25.624;2023-01-15T00:28:04;16.15;;;5.80;;
68386;SDS011;55338;43.062;25.624;2023-01-15T00:30:30;13.07;;;6.40;;
68386;SDS011;55338;43.062;25.624;2023-01-15T00:32:56;13.68;;;5.80;;
68386;SDS011;55338;43.062;25.624;2023-01-15T00:35:23;15.50;;;5.70;;
68386;SDS011;55338;43.062;25.624;2023-01-15T00:37:50;11.57;;;5.63;;
68386;SDS011;55338;43.062;25.624;2023-01-15T00:40:17;13.23;;;5.85;;
68386;SDS011;55338;43.062;25.624;2023-01-15T00:42:45;12.32;;;5.60;;
68386;SDS011;55338;43.062;25.624;2023-01-15T00:45:11;14.70;;;5.20;;
68386;SDS011;55338;43.062;25.624;2023-01-15T00:47:41;10.20;;;5.22;;
68386;SDS011;55338;43.062;25.624;2023-01-15T00:50:10;12.30;;;5.43;;
68386;SDS011;55338;43.062;25.624;2023-01-15T00:52:37;11.88;;;6.22;;
68386;SDS011;55338;43.062;25.624;2023-01-15T00:55:03;12.40;;;5.80;;
68386;SDS011;55338;43.062;25.624;2023-01-15T00:57:30;13.15;;;5.35;;
68386;SDS011;55338;43.062;25.624;2023-01-15T00:59:56;11.18;;;5.53;;
68386;SDS011;55338;43.062;25.624;2023-01-15T01:02:21;11.27;;;5.23;;
68386;SDS011;55338;43.062;25.624;2023-01-15T01:04:47;11.07;;;5.50;;
68386;SDS011;55338;43.062;25.624;2023-01-15T01:07:13;11.52;;;5.88;;
68386;SDS011;55338;43.062;25.624;2023-01-15T01:09:40;9.27;;;4.70;;
68386;SDS011;55338;43.062;25.624;2023-01-15T01:12:06;12.63;;;5.50;;
68386;SDS011;55338;43.062;25.624;2023-01-15T01:14:32;11.13;;;5.35;;
68386;SDS011;55338;43.062;25.624;2023-01-15T01:16:58;14.27;;;5.60;;
68386;SDS011;55338;43.062;25.624;2023-01-15T01:19:24;12.57;;;5.78;;
68386;SDS011;55338;43.062;25.624;2023-01-15T01:21:51;13.48;;;5.50;;
68386;SDS011;55338;43.062;25.624;2023-01-15T01:24:18;14.40;;;5.80;;
68386;SDS011;55338;43.062;25.624;2023-01-15T01:26:45;12.90;;;5.80;;
68386;SDS011;55338;43.062;25.624;2023-01-15T01:29:15;11.55;;;5.13;;
68386;SDS011;55338;43.062;25.624;2023-01-15T01:31:43;12.07;;;5.75;;
68386;SDS011;55338;43.062;25.624;2023-01-15T01:34:09;11.73;;;5.05;;
68386;SDS011;55338;43.062;25.624;2023-01-15T01:36:36;11.67;;;5.80;;
68386;SDS011;55338;43.062;25.624;2023-01-15T01:39:03;10.45;;;5.10;;
68386;SDS011;55338;43.062;25.624;2023-01-15T01:41:30;11.52;;;4.95;;
68386;SDS011;55338;43.062;25.624;2023-01-15T01:46:23;10.93;;;4.90;;
68386;SDS011;55338;43.062;25.624;2023-01-15T01:48:50;12.45;;;5.05;;
68386;SDS011;55338;43.062;25.624;2023-01-15T01:51:19;13.77;;;5.80;;
68386;SDS011;55338;43.062;25.624;2023-01-15T01:53:47;11.52;;;5.03;;
68386;SDS011;55338;43.062;25.624;2023-01-15T01:56:13;11.77;;;5.23;;
68386;SDS011;55338;43.062;25.624;2023-01-15T01:58:42;17.40;;;7.25;;
68386;SDS011;55338;43.062;25.624;2023-01-15T02:01:11;15.40;;;7.50;;
68386;SDS011;55338;43.062;25.624;2023-01-15T02:03:37;18.00;;;6.22;;
68386;SDS011;55338;43.062;25.624;2023-01-15T02:06:05;13.10;;;6.07;;
68386;SDS011;55338;43.062;25.624;2023-01-15T02:08:33;15.43;;;6.90;;
68386;SDS011;55338;43.062;25.624;2023-01-15T02:10:59;14.32;;;6.78;;
68386;SDS011;55338;43.062;25.624;2023-01-15T02:24:01;24.00;;;10.25;;
68386;SDS011;55338;43.062;25.624;2023-01-15T02:26:57;22.23;;;10.00;;
68386;SDS011;55338;43.062;25.624;2023-01-15T02:29:41;22.70;;;9.55;;
68386;SDS011;55338;43.062;25.624;2023-01-15T02:32:14;13.82;;;6.35;;
68386;SDS011;55338;43.062;25.624;2023-01-15T02:34:52;18.08;;;7.78;;
68386;SDS011;55338;43.062;25.624;2023-01-15T02:37:27;12.88;;;6.75;;
68386;SDS011;55338;43.062;25.624;2023-01-15T02:39:56;16.07;;;6.87;;
68386;SDS011;55338;43.062;25.624;2023-01-15T02:42:25;17.17;;;7.22;;
68386;SDS011;55338;43.062;25.624;2023-01-15T02:44:53;13.85;;;7.03;;
68386;SDS011;55338;43.062;25.624;2023-01-15T02:47:23;16.17;;;6.88;;
68386;SDS011;55338;43.062;25.624;2023-01-15T02:49:53;16.92;;;6.78;;
68386;SDS011;55338;43.062;25.624;2023-01-15T02:52:23;16.93;;;8.20;;
68386;SDS011;55338;43.062;25.624;2023-01-15T02:55:00;17.35;;;7.88;;
68386;SDS011;55338;43.062;25.624;2023-01-15T02:57:34;16.58;;;7.47;;
68386;SDS011;55338;43.062;25.624;2023-01-15T03:00:03;18.25;;;7.82;;
68386;SDS011;55338;43.062;25.624;2023-01-15T03:02:38;21.85;;;9.15;;
68386;SDS011;55338;43.062;25.624;2023-01-15T03:05:15;17.67;;;8.60;;
68386;SDS011;55338;43.062;25.624;2023-01-15T03:07:56;16.02;;;7.82;;
68386;SDS011;55338;43.062;25.624;2023-01-15T03:13:43;15.63;;;7.22;;
68386;SDS011;55338;43.062;25.624;2023-01-15T03:24:18;16.60;;;7.80;;
68386;SDS011;55338;43.062;25.624;2023-01-15T03:26:50;20.05;;;8.48;;
68386;SDS011;55338;43.062;25.624;2023-01-15T03:29:17;19.77;;;9.93;;
68386;SDS011;55338;43.062;25.624;2023-01-15T03:31:45;22.80;;;9.30;;
68386;SDS011;55338;43.062;25.624;2023-01-15T03:34:11;23.35;;;8.70;;
68386;SDS011;55338;43.062;25.624;2023-01-15T03:36:36;17.63;;;8.00;;
68386;SDS011;55338;43.062;25.624;2023-01-15T03:39:03;18.73;;;8.17;;
68386;SDS011;55338;43.062;25.624;2023-01-15T03:47:28;15.55;;;6.93;;
68386;SDS011;55338;43.062;25.624;2023-01-15T03:50:17;16.40;;;7.75;;
68386;SDS011;55338;43.062;25.624;2023-01-15T03:52:55;17.03;;;7.07;;
68386;SDS011;55338;43.062;25.624;2023-01-15T04:01:15;14.75;;;6.95;;
68386;SDS011;55338;43.062;25.624;2023-01-15T04:03:44;17.58;;;7.63;;
68386;SDS011;55338;43.062;25.624;2023-01-15T04:06:12;16.93;;;6.97;;
68386;SDS011;55338;43.062;25.624;2023-01-15T04:08:39;16.48;;;7.18;;
68386;SDS011;55338;43.062;25.624;2023-01-15T04:11:07;16.13;;;6.68;;
68386;SDS011;55338;43.062;25.624;2023-01-15T04:13:32;16.05;;;7.63;;
68386;SDS011;55338;43.062;25.624;2023-01-15T04:15:58;18.70;;;7.40;;
68386;SDS011;55338;43.062;25.624;2023-01-15T04:18:24;18.50;;;7.47;;
68386;SDS011;55338;43.062;25.624;2023-01-15T04:20:50;20.33;;;7.90;;
68386;SDS011;55338;43.062;25.624;2023-01-15T04:23:16;15.33;;;7.23;;
68386;SDS011;55338;43.062;25.624;2023-01-15T04:25:42;17.30;;;7.05;;
68386;SDS011;55338;43.062;25.624;2023-01-15T04:28:08;16.10;;;7.20;;
68386;SDS011;55338;43.062;25.624;2023-01-15T04:30:34;17.27;;;7.57;;
68386;SDS011;55338;43.062;25.624;2023-01-15T04:33:00;19.20;;;7.75;;
68386;SDS011;55338;43.062;25.624;2023-01-15T04:35:26;19.05;;;8.20;;
68386;SDS011;55338;43.062;25.624;2023-01-15T04:37:56;16.93;;;7.93;;
68386;SDS011;55338;43.062;25.624;2023-01-15T04:40:25;16.35;;;6.80;;
68386;SDS011;55338;43.062;25.624;2023-01-15T04:43:13;16.70;;;7.80;;
68386;SDS011;55338;43.062;25.624;2023-01-15T04:45:58;17.92;;;8.07;;
68386;SDS011;55338;43.062;25.624;2023-01-15T04:48:24;20.95;;;8.23;;
68386;SDS011;55338;43.062;25.624;2023-01-15T04:50:50;18.60;;;7.10;;
68386;SDS011;55338;43.062;25.624;2023-01-15T04:53:17;18.65;;;7.75;;
68386;SDS011;55338;43.062;25.624;2023-01-15T04:55:42;18.98;;;8.02;;
68386;SDS011;55338;43.062;25.624;2023-01-15T04:58:08;19.33;;;9.50;;
68386;SDS011;55338;43.062;25.624;2023-01-15T05:00:34;20.77;;;8.90;;
68386;SDS011;55338;43.062;25.624;2023-01-15T05:03:00;19.70;;;8.68;;
68386;SDS011;55338;43.062;25.624;2023-01-15T05:05:26;20.67;;;8.80;;
68386;SDS011;55338;43.062;25.624;2023-01-15T05:07:52;21.77;;;9.75;;
68386;SDS011;55338;43.062;25.624;2023-01-15T05:10:17;19.47;;;8.83;;
68386;SDS011;55338;43.062;25.624;2023-01-15T05:12:43;18.33;;;7.93;;
68386;SDS011;55338;43.062;25.624;2023-01-15T05:15:09;25.10;;;10.15;;
68386;SDS011;55338;43.062;25.624;2023-01-15T05:17:35;24.13;;;10.50;;
68386;SDS011;55338;43.062;25.624;2023-01-15T05:20:00;25.63;;;11.20;;
68386;SDS011;55338;43.062;25.624;2023-01-15T05:22:26;27.00;;;11.87;;
68386;SDS011;55338;43.062;25.624;2023-01-15T05:24:52;32.80;;;13.52;;
68386;SDS011;55338;43.062;25.624;2023-01-15T05:27:18;34.20;;;13.87;;
68386;SDS011;55338;43.062;25.624;2023-01-15T05:29:43;32.08;;;15.23;;
68386;SDS011;55338;43.062;25.624;2023-01-15T05:32:09;31.33;;;14.40;;
68386;SDS011;55338;43.062;25.624;2023-01-15T05:34:35;28.92;;;13.18;;
68386;SDS011;55338;43.062;25.624;2023-01-15T05:37:01;30.17;;;13.57;;
68386;SDS011;55338;43.062;25.624;2023-01-15T05:39:26;37.58;;;14.35;;
68386;SDS011;55338;43.062;25.624;2023-01-15T05:41:52;27.90;;;13.03;;
68386;SDS011;55338;43.062;25.624;2023-01-15T05:46:44;29.00;;;12.07;;
68386;SDS011;55338;43.062;25.624;2023-01-15T05:49:12;26.85;;;10.40;;
68386;SDS011;55338;43.062;25.624;2023-01-15T05:51:40;24.63;;;10.55;;
68386;SDS011;55338;43.062;25.624;2023-01-15T05:54:07;24.67;;;11.00;;
68386;SDS011;55338;43.062;25.624;2023-01-15T05:56:35;26.27;;;12.75;;
68386;SDS011;55338;43.062;25.624;2023-01-15T05:59:02;30.40;;;11.23;;
68386;SDS011;55338;43.062;25.624;2023-01-15T06:01:28;28.20;;;12.75;;
68386;SDS011;55338;43.062;25.624;2023-01-15T06:03:56;29.42;;;12.70;;
68386;SDS011;55338;43.062;25.624;2023-01-15T06:06:23;29.75;;;12.40;;
68386;SDS011;55338;43.062;25.624;2023-01-15T06:08:49;24.80;;;10.73;;
68386;SDS011;55338;43.062;25.624;2023-01-15T06:11:14;26.40;;;11.45;;
68386;SDS011;55338;43.062;25.624;2023-01-15T06:13:40;26.33;;;11.53;;
68386;SDS011;55338;43.062;25.624;2023-01-15T06:16:06;27.48;;;10.48;;
68386;SDS011;55338;43.062;25.624;2023-01-15T06:18:34;27.93;;;11.93;;
68386;SDS011;55338;43.062;25.624;2023-01-15T06:21:01;27.95;;;11.05;;
68386;SDS011;55338;43.062;25.624;2023-01-15T06:23:28;21.55;;;10.27;;
68386;SDS011;55338;43.062;25.624;2023-01-15T06:25:58;22.73;;;10.95;;
68386;SDS011;55338;43.062;25.624;2023-01-15T06:28:24;24.85;;;10.88;;
68386;SDS011;55338;43.062;25.624;2023-01-15T06:30:50;24.13;;;11.57;;
68386;SDS011;55338;43.062;25.624;2023-01-15T06:33:16;25.10;;;11.50;;
68386;SDS011;55338;43.062;25.624;2023-01-15T06:35:41;22.43;;;10.53;;
68386;SDS011;55338;43.062;25.624;2023-01-15T06:38:07;21.65;;;10.57;;
68386;SDS011;55338;43.062;25.624;2023-01-15T06:40:33;19.37;;;8.13;;
68386;SDS011;55338;43.062;25.624;2023-01-15T06:42:58;23.70;;;9.57;;
68386;SDS011;55338;43.062;25.624;2023-01-15T06:45:43;24.73;;;9.80;;
68386;SDS011;55338;43.062;25.624;2023-01-15T06:48:27;23.45;;;9.20;;
68386;SDS011;55338;43.062;25.624;2023-01-15T06:50:53;19.90;;;8.98;;
68386;SDS011;55338;43.062;25.624;2023-01-15T06:53:19;16.15;;;7.93;;
68386;SDS011;55338;43.062;25.624;2023-01-15T06:55:45;17.03;;;7.70;;
68386;SDS011;55338;43.062;25.624;2023-01-15T06:58:11;18.25;;;6.95;;
68386;SDS011;55338;43.062;25.624;2023-01-15T07:00:37;17.10;;;7.53;;
68386;SDS011;55338;43.062;25.624;2023-01-15T07:03:03;12.23;;;6.03;;
68386;SDS011;55338;43.062;25.624;2023-01-15T07:05:29;15.85;;;6.93;;
68386;SDS011;55338;43.062;25.624;2023-01-15T07:07:56;14.88;;;6.50;;
68386;SDS011;55338;43.062;25.624;2023-01-15T07:10:22;15.75;;;6.68;;
68386;SDS011;55338;43.062;25.624;2023-01-15T07:12:47;17.90;;;6.87;;
68386;SDS011;55338;43.062;25.624;2023-01-15T07:15:13;18.10;;;7.40;;
68386;SDS011;55338;43.062;25.624;2023-01-15T07:17:39;16.30;;;6.97;;
68386;SDS011;55338;43.062;25.624;2023-01-15T07:20:05;14.40;;;7.00;;
68386;SDS011;55338;43.062;25.624;2023-01-15T07:22:31;15.52;;;7.28;;
68386;SDS011;55338;43.062;25.624;2023-01-15T07:24:57;18.20;;;8.30;;
68386;SDS011;55338;43.062;25.624;2023-01-15T07:27:23;14.43;;;7.32;;
68386;SDS011;55338;43.062;25.624;2023-01-15T07:29:48;15.87;;;6.43;;
68386;SDS011;55338;43.062;25.624;2023-01-15T07:32:16;13.98;;;6.70;;
68386;SDS011;55338;43.062;25.624;2023-01-15T07:34:42;14.25;;;6.25;;
68386;SDS011;55338;43.062;25.624;2023-01-15T07:37:08;13.57;;;6.43;;
68386;SDS011;55338;43.062;25.624;2023-01-15T07:39:34;12.90;;;6.47;;
68386;SDS011;55338;43.062;25.624;2023-01-15T07:41:59;13.23;;;6.45;;
68386;SDS011;55338;43.062;25.624;2023-01-15T07:44:43;12.50;;;6.70;;
68386;SDS011;55338;43.062;25.624;2023-01-15T07:47:28;14.20;;;6.40;;
68386;SDS011;55338;43.062;25.624;2023-01-15T07:50:15;12.70;;;5.68;;
68386;SDS011;55338;43.062;25.624;2023-01-15T07:52:43;12.23;;;6.03;;
68386;SDS011;55338;43.062;25.624;2023-01-15T07:55:09;12.75;;;6.03;;
68386;SDS011;55338;43.062;25.624;2023-01-15T07:57:36;14.80;;;6.40;;
68386;SDS011;55338;43.062;25.624;2023-01-15T08:00:07;12.85;;;6.63;;
68386;SDS011;55338;43.062;25.624;2023-01-15T08:02:35;11.88;;;6.00;;
68386;SDS011;55338;43.062;25.624;2023-01-15T08:05:01;12.70;;;6.20;;
68386;SDS011;55338;43.062;25.624;2023-01-15T08:07:26;17.27;;;7.30;;
68386;SDS011;55338;43.062;25.624;2023-01-15T08:09:52;12.80;;;6.35;;
68386;SDS011;55338;43.062;25.624;2023-01-15T08:12:18;12.47;;;5.93;;
68386;SDS011;55338;43.062;25.624;2023-01-15T08:15:02;12.52;;;6.15;;
68386;SDS011;55338;43.062;25.624;2023-01-15T08:17:38;16.20;;;6.63;;
68386;SDS011;55338;43.062;25.624;2023-01-15T08:20:14;12.85;;;6.22;;
68386;SDS011;55338;43.062;25.624;2023-01-15T08:22:45;12.13;;;5.95;;
68386;SDS011;55338;43.062;25.624;2023-01-15T08:25:12;14.07;;;6.90;;
68386;SDS011;55338;43.062;25.624;2023-01-15T08:27:40;14.70;;;6.72;;
68386;SDS011;55338;43.062;25.624;2023-01-15T08:30:07;13.32;;;6.30;;
68386;SDS011;55338;43.062;25.624;2023-01-15T08:32:35;12.23;;;5.95;;
68386;SDS011;55338;43.062;25.624;2023-01-15T08:35:01;12.27;;;5.85;;
68386;SDS011;55338;43.062;25.624;2023-01-15T08:37:26;12.93;;;5.80;;
68386;SDS011;55338;43.062;25.624;2023-01-15T08:39:52;9.48;;;4.47;;
68386;SDS011;55338;43.062;25.624;2023-01-15T08:42:18;8.90;;;4.10;;
68386;SDS011;55338;43.062;25.624;2023-01-15T08:44:45;9.32;;;4.25;;
68386;SDS011;55338;43.062;25.624;2023-01-15T08:47:11;9.38;;;4.32;;
68386;SDS011;55338;43.062;25.624;2023-01-15T08:49:37;9.50;;;4.88;;
68386;SDS011;55338;43.062;25.624;2023-01-15T08:52:03;9.17;;;4.30;;
68386;SDS011;55338;43.062;25.624;2023-01-15T08:54:29;9.55;;;4.55;;
68386;SDS011;55338;43.062;25.624;2023-01-15T08:56:55;9.48;;;4.75;;
68386;SDS011;55338;43.062;25.624;2023-01-15T08:59:22;10.05;;;4.53;;
68386;SDS011;55338;43.062;25.624;2023-01-15T09:01:48;10.27;;;4.63;;
68386;SDS011;55338;43.062;25.624;2023-01-15T09:04:14;9.18;;;4.85;;
68386;SDS011;55338;43.062;25.624;2023-01-15T09:06:41;9.95;;;4.70;;
68386;SDS011;55338;43.062;25.624;2023-01-15T09:09:07;7.50;;;4.13;;
68386;SDS011;55338;43.062;25.624;2023-01-15T09:11:34;9.65;;;4.88;;
68386;SDS011;55338;43.062;25.624;2023-01-15T09:14:01;9.68;;;4.50;;
68386;SDS011;55338;43.062;25.624;2023-01-15T09:16:27;9.32;;;4.55;;
68386;SDS011;55338;43.062;25.624;2023-01-15T09:18:55;8.77;;;5.20;;
68386;SDS011;55338;43.062;25.624;2023-01-15T09:21:21;10.03;;;5.00;;
68386;SDS011;55338;43.062;25.624;2023-01-15T09:23:48;9.85;;;5.53;;
68386;SDS011;55338;43.062;25.624;2023-01-15T09:26:25;9.82;;;5.20;;
68386;SDS011;55338;43.062;25.624;2023-01-15T09:28:52;9.93;;;5.20;;
68386;SDS011;55338;43.062;25.624;2023-01-15T09:31:17;10.13;;;5.20;;
68386;SDS011;55338;43.062;25.624;2023-01-15T09:33:43;9.93;;;5.22;;
68386;SDS011;55338;43.062;25.624;2023-01-15T09:36:16;10.27;;;5.53;;
68386;SDS011;55338;43.062;25.624;2023-01-15T09:38:44;9.52;;;4.97;;
68386;SDS011;55338;43.062;25.624;2023-01-15T09:41:13;9.75;;;4.82;;
68386;SDS011;55338;43.062;25.624;2023-01-15T09:46:34;13.02;;;5.18;;
68386;SDS011;55338;43.062;25.624;2023-01-15T09:57:20;10.17;;;5.00;;
68386;SDS011;55338;43.062;25.624;2023-01-15T09:59:48;10.88;;;4.93;;
68386;SDS011;55338;43.062;25.624;2023-01-15T10:05:21;9.65;;;4.43;;
68386;SDS011;55338;43.062;25.624;2023-01-15T10:10:25;7.95;;;3.90;;
68386;SDS011;55338;43.062;25.624;2023-01-15T10:12:59;9.38;;;4.40;;
68386;SDS011;55338;43.062;25.624;2023-01-15T10:18:11;9.25;;;5.07;;
68386;SDS011;55338;43.062;25.624;2023-01-15T10:26:54;9.13;;;4.60;;
68386;SDS011;55338;43.062;25.624;2023-01-15T10:38:14;9.43;;;4.05;;
68386;SDS011;55338;43.062;25.624;2023-01-15T10:46:17;6.33;;;3.40;;
68386;SDS011;55338;43.062;25.624;2023-01-15T10:48:48;7.07;;;3.60;;
68386;SDS011;55338;43.062;25.624;2023-01-15T10:51:19;6.22;;;3.13;;
68386;SDS011;55338;43.062;25.624;2023-01-15T10:53:51;8.20;;;3.80;;
68386;SDS011;55338;43.062;25.624;2023-01-15T10:56:42;7.40;;;3.63;;
68386;SDS011;55338;43.062;25.624;2023-01-15T10:59:32;9.63;;;4.35;;
68386;SDS011;55338;43.062;25.624;2023-01-15T11:04:49;5.85;;;3.33;;
68386;SDS011;55338;43.062;25.624;2023-01-15T11:07:14;5.50;;;2.95;;
68386;SDS011;55338;43.062;25.624;2023-01-15T11:09:42;6.13;;;2.83;;
68386;SDS011;55338;43.062;25.624;2023-01-15T11:12:16;7.13;;;3.33;;
68386;SDS011;55338;43.062;25.624;2023-01-15T11:14:52;7.18;;;3.70;;
68386;SDS011;55338;43.062;25.624;2023-01-15T11:17:45;6.75;;;3.38;;
68386;SDS011;55338;43.062;25.624;2023-01-15T11:20:30;7.70;;;3.42;;
68386;SDS011;55338;43.062;25.624;2023-01-15T11:25:33;5.93;;;3.10;;
68386;SDS011;55338;43.062;25.624;2023-01-15T11:28:03;6.45;;;3.05;;
68386;SDS011;55338;43.062;25.624;2023-01-15T11:30:32;6.18;;;3.00;;
68386;SDS011;55338;43.062;25.624;2023-01-15T11:33:01;5.50;;;2.75;;
68386;SDS011;55338;43.062;25.624;2023-01-15T11:35:29;7.47;;;3.33;;
68386;SDS011;55338;43.062;25.624;2023-01-15T11:38:02;7.55;;;3.30;;
68386;SDS011;55338;43.062;25.624;2023-01-15T11:40:37;6.30;;;4.03;;
68386;SDS011;55338;43.062;25.624;2023-01-15T11:43:02;7.35;;;3.75;;
68386;SDS011;55338;43.062;25.624;2023-01-15T11:46:00;6.75;;;3.03;;
68386;SDS011;55338;43.062;25.624;2023-01-15T11:48:45;6.85;;;3.28;;
68386;SDS011;55338;43.062;25.624;2023-01-15T11:51:35;7.43;;;3.40;;
68386;SDS011;55338;43.062;25.624;2023-01-15T11:54:07;6.68;;;2.92;;
68386;SDS011;55338;43.062;25.624;2023-01-15T11:56:36;5.80;;;2.78;;
68386;SDS011;55338;43.062;25.624;2023-01-15T11:59:08;5.97;;;2.90;;
68386;SDS011;55338;43.062;25.624;2023-01-15T12:01:38;6.28;;;3.28;;
68386;SDS011;55338;43.062;25.624;2023-01-15T12:04:25;6.22;;;3.03;;
68386;SDS011;55338;43.062;25.624;2023-01-15T12:06:57;5.45;;;2.90;;
68386;SDS011;55338;43.062;25.624;2023-01-15T12:18:00;5.80;;;2.88;;
68386;SDS011;55338;43.062;25.624;2023-01-15T12:20:51;5.95;;;2.80;;
68386;SDS011;55338;43.062;25.624;2023-01-15T12:26:14;9.35;;;3.33;;
68386;SDS011;55338;43.062;25.624;2023-01-15T12:29:34;6.28;;;3.75;;
68386;SDS011;55338;43.062;25.624;2023-01-15T12:31:48;6.78;;;3.63;;
68386;SDS011;55338;43.062;25.624;2023-01-15T12:34:24;6.22;;;3.35;;
68386;SDS011;55338;43.062;25.624;2023-01-15T12:37:05;6.13;;;3.50;;
68386;SDS011;55338;43.062;25.624;2023-01-15T12:42:16;6.63;;;3.80;;
68386;SDS011;55338;43.062;25.624;2023-01-15T12:45:06;5.97;;;3.53;;
68386;SDS011;55338;43.062;25.624;2023-01-15T12:52:45;6.35;;;3.20;;
68386;SDS011;55338;43.062;25.624;2023-01-15T12:55:20;5.57;;;3.35;;
68386;SDS011;55338;43.062;25.624;2023-01-15T12:57:50;6.40;;;3.90;;
68386;SDS011;55338;43.062;25.624;2023-01-15T13:00:23;6.27;;;3.63;;
68386;SDS011;55338;43.062;25.624;2023-01-15T13:11:03;6.65;;;3.63;;
68386;SDS011;55338;43.062;25.624;2023-01-15T13:13:32;6.37;;;3.33;;
68386;SDS011;55338;43.062;25.624;2023-01-15T13:16:05;6.07;;;3.30;;
68386;SDS011;55338;43.062;25.624;2023-01-15T13:18:58;6.10;;;3.47;;
68386;SDS011;55338;43.062;25.624;2023-01-15T13:21:46;6.28;;;3.53;;
68386;SDS011;55338;43.062;25.624;2023-01-15T13:24:26;6.90;;;3.20;;
68386;SDS011;55338;43.062;25.624;2023-01-15T13:32:57;6.05;;;3.50;;
68386;SDS011;55338;43.062;25.624;2023-01-15T13:35:31;9.00;;;3.50;;
68386;SDS011;55338;43.062;25.624;2023-01-15T13:38:01;6.55;;;3.85;;
68386;SDS011;55338;43.062;25.624;2023-01-15T13:40:33;6.20;;;3.30;;
68386;SDS011;55338;43.062;25.624;2023-01-15T13:43:06;5.95;;;2.90;;
68386;SDS011;55338;43.062;25.624;2023-01-15T13:45:41;5.55;;;2.70;;
68386;SDS011;55338;43.062;25.624;2023-01-15T13:48:16;5.78;;;2.38;;
68386;SDS011;55338;43.062;25.624;2023-01-15T13:51:06;5.20;;;2.63;;
68386;SDS011;55338;43.062;25.624;2023-01-15T13:53:56;6.50;;;2.90;;
68386;SDS011;55338;43.062;25.624;2023-01-15T13:56:29;4.25;;;2.20;;
68386;SDS011;55338;43.062;25.624;2023-01-15T13:59:00;5.15;;;2.25;;
68386;SDS011;55338;43.062;25.624;2023-01-15T14:04:34;5.90;;;3.05;;
68386;SDS011;55338;43.062;25.624;2023-01-15T14:07:00;6.20;;;2.63;;
68386;SDS011;55338;43.062;25.624;2023-01-15T14:09:27;5.90;;;2.90;;
68386;SDS011;55338;43.062;25.624;2023-01-15T14:25:03;6.82;;;3.00;;
68386;SDS011;55338;43.062;25.624;2023-01-15T14:36:22;5.65;;;2.40;;
68386;SDS011;55338;43.062;25.624;2023-01-15T14:38:57;5.38;;;2.33;;
68386;SDS011;55338;43.062;25.624;2023-01-15T14:41:28;5.47;;;2.70;;
68386;SDS011;55338;43.062;25.624;2023-01-15T14:43:57;5.85;;;2.50;;
68386;SDS011;55338;43.062;25.624;2023-01-15T14:46:30;5.90;;;2.75;;
68386;SDS011;55338;43.062;25.624;2023-01-15T14:49:02;7.35;;;2.63;;
68386;SDS011;55338;43.062;25.624;2023-01-15T14:51:32;7.93;;;3.60;;
68386;SDS011;55338;43.062;25.624;2023-01-15T14:54:10;7.20;;;2.70;;
68386;SDS011;55338;43.062;25.624;2023-01-15T14:56:44;10.23;;;3.10;;
68386;SDS011;55338;43.062;25.624;2023-01-15T14:59:25;10.07;;;3.35;;
68386;SDS011;55338;43.062;25.624;2023-01-15T15:02:04;7.35;;;3.20;;
68386;SDS011;55338;43.062;25.624;2023-01-15T15:04:39;19.08;;;3.97;;
68386;SDS011;55338;43.062;25.624;2023-01-15T15:07:11;20.50;;;4.00;;
68386;SDS011;55338;43.062;25.624;2023-01-15T15:09:47;10.85;;;3.70;;
68386;SDS011;55338;43.062;25.624;2023-01-15T15:20:25;8.05;;;3.90;;
68386;SDS011;55338;43.062;25.624;2023-01-15T15:22:57;7.65;;;3.58;;
68386;SDS011;55338;43.062;25.624;2023-01-15T15:25:29;6.35;;;3.00;;
68386;SDS011;55338;43.062;25.624;2023-01-15T15:28:03;5.82;;;2.72;;
68386;SDS011;55338;43.062;25.624;2023-01-15T15:30:30;9.07;;;3.10;;
68386;SDS011;55338;43.062;25.624;2023-01-15T15:32:59;7.68;;;3.17;;
68386;SDS011;55338;43.062;25.624;2023-01-15T15:35:28;6.97;;;3.20;;
68386;SDS011;55338;43.062;25.624;2023-01-15T15:37:55;11.15;;;3.80;;
68386;SDS011;55338;43.062;25.624;2023-01-15T15:40:30;8.52;;;3.80;;
68386;SDS011;55338;43.062;25.624;2023-01-15T15:43:01;11.57;;;4.40;;
68386;SDS011;55338;43.062;25.624;2023-01-15T15:45:53;10.73;;;4.13;;
68386;SDS011;55338;43.062;25.624;2023-01-15T15:48:39;9.52;;;4.07;;
68386;SDS011;55338;43.062;25.624;2023-01-15T15:59:30;9.10;;;4.20;;
68386;SDS011;55338;43.062;25.624;2023-01-15T16:02:06;11.85;;;4.97;;
68386;SDS011;55338;43.062;25.624;2023-01-15T16:07:24;9.05;;;3.80;;
68386;SDS011;55338;43.062;25.624;2023-01-15T16:09:56;8.37;;;3.87;;
68386;SDS011;55338;43.062;25.624;2023-01-15T16:12:25;9.35;;;4.38;;
68386;SDS011;55338;43.062;25.624;2023-01-15T16:14:54;13.13;;;3.85;;
68386;SDS011;55338;43.062;25.624;2023-01-15T16:17:20;10.88;;;4.18;;
68386;SDS011;55338;43.062;25.624;2023-01-15T16:19:49;10.40;;;4.25;;
68386;SDS011;55338;43.062;25.624;2023-01-15T16:22:15;10.03;;;4.53;;
68386;SDS011;55338;43.062;25.624;2023-01-15T16:24:51;9.10;;;3.45;;
68386;SDS011;55338;43.062;25.624;2023-01-15T16:27:18;7.57;;;4.00;;
68386;SDS011;55338;43.062;25.624;2023-01-15T16:29:47;9.13;;;3.92;;
68386;SDS011;55338;43.062;25.624;2023-01-15T16:32:18;11.75;;;3.75;;
68386;SDS011;55338;43.062;25.624;2023-01-15T16:34:57;9.37;;;4.23;;
68386;SDS011;55338;43.062;25.624;2023-01-15T16:37:32;9.98;;;3.70;;
68386;SDS011;55338;43.062;25.624;2023-01-15T16:40:00;7.95;;;3.78;;
68386;SDS011;55338;43.062;25.624;2023-01-15T16:45:00;8.77;;;3.60;;
68386;SDS011;55338;43.062;25.624;2023-01-15T16:47:31;7.00;;;3.23;;
68386;SDS011;55338;43.062;25.624;2023-01-15T16:52:48;9.10;;;3.58;;
68386;SDS011;55338;43.062;25.624;2023-01-15T17:00:41;7.57;;;3.70;;
68386;SDS011;55338;43.062;25.624;2023-01-15T17:03:15;9.02;;;3.88;;
68386;SDS011;55338;43.062;25.624;2023-01-15T17:05:44;10.95;;;4.90;;
68386;SDS011;55338;43.062;25.624;2023-01-15T17:08:19;11.55;;;4.50;;
68386;SDS011;55338;43.062;25.624;2023-01-15T17:10:54;9.95;;;4.50;;
68386;SDS011;55338;43.062;25.624;2023-01-15T17:13:33;9.47;;;4.53;;
68386;SDS011;55338;43.062;25.624;2023-01-15T17:16:04;9.00;;;4.78;;
68386;SDS011;55338;43.062;25.624;2023-01-15T17:18:36;11.32;;;3.83;;
68386;SDS011;55338;43.062;25.624;2023-01-15T17:21:02;8.95;;;3.65;;
68386;SDS011;55338;43.062;25.624;2023-01-15T17:23:29;8.57;;;3.95;;
68386;SDS011;55338;43.062;25.624;2023-01-15T17:25:59;10.37;;;4.13;;
68386;SDS011;55338;43.062;25.624;2023-01-15T17:28:25;12.68;;;5.57;;
68386;SDS011;55338;43.062;25.624;2023-01-15T17:30:51;12.50;;;5.22;;
68386;SDS011;55338;43.062;25.624;2023-01-15T17:33:21;15.80;;;6.50;;
68386;SDS011;55338;43.062;25.624;2023-01-15T17:35:47;14.37;;;6.27;;